createdAt,value
2022-08-22T00:01:38.342Z,19.22
2022-08-22T00:02:42.589Z,23.35
2022-08-22T00:02:56.461Z,23.74
2022-08-22T00:04:13.283Z,19.62
2022-08-22T00:06:50.712Z,19.58
2022-08-22T00:09:29.595Z,19.92
2022-08-22T00:12:08.315Z,19.24
2022-08-22T00:14:41.472Z,19.14
2022-08-22T00:17:29.173Z,19.26
2022-08-22T00:20:07.301Z,19.37
2022-08-22T00:22:40.683Z,19.66
2022-08-22T00:25:26.731Z,19.25
2022-08-22T00:27:58.386Z,19.24
2022-08-22T00:30:30.290Z,19.55
2022-08-22T00:33:02.774Z,19.74
2022-08-22T00:35:44.873Z,19.51
2022-08-22T00:38:19.001Z,19.49
2022-08-22T00:41:00.033Z,19.21
2022-08-22T00:44:01.840Z,19.06
2022-08-22T00:46:44.984Z,19.48
2022-08-22T00:49:24.537Z,19.56
2022-08-22T00:52:27.447Z,19.29
2022-08-22T00:55:18.478Z,18.44
2022-08-22T00:57:56.551Z,18.61
2022-08-22T01:00:27.086Z,18.42
2022-08-22T01:03:11.625Z,18.83
2022-08-22T01:06:00.402Z,18.16
2022-08-22T01:08:40.488Z,18.18
2022-08-22T01:11:23.311Z,18.32
2022-08-22T01:14:05.259Z,18.71
2022-08-22T01:17:00.721Z,18.82
2022-08-22T01:20:05.248Z,18.97
2022-08-22T01:23:07.711Z,18.99
2022-08-22T01:26:19.450Z,19.39
2022-08-22T01:29:28.512Z,19.34
2022-08-22T01:32:21.044Z,19.22
2022-08-22T01:35:05.954Z,18.58
2022-08-22T01:38:10.264Z,19.07
2022-08-22T01:41:17.052Z,18.99
2022-08-22T01:44:03.227Z,19.29
2022-08-22T01:46:36.525Z,19.23
2022-08-22T01:49:11.436Z,19.41
2022-08-22T01:51:47.289Z,19.46
2022-08-22T01:54:26.333Z,19.47
2022-08-22T01:57:00.602Z,19.35
2022-08-22T01:59:34.607Z,18.62
2022-08-22T02:02:22.101Z,18.77
2022-08-22T02:04:56.787Z,18.74
2022-08-22T02:07:32.241Z,18.78
2022-08-22T02:10:10.986Z,18.97
2022-08-22T02:12:46.132Z,19.06
2022-08-22T02:15:20.114Z,19.17
2022-08-22T02:18:02.335Z,19.09
2022-08-22T02:20:34.274Z,19.14
2022-08-22T02:23:09.206Z,19.29
2022-08-22T02:25:50.965Z,19.17
2022-08-22T02:28:31.993Z,19.02
2022-08-22T02:31:04.218Z,18.90
2022-08-22T02:33:37.125Z,19.45
2022-08-22T02:36:11.865Z,19.27
2022-08-22T02:38:45.682Z,19.25
2022-08-22T02:41:18.970Z,19.23
2022-08-22T02:44:02.632Z,18.83
2022-08-22T02:46:41.008Z,18.33
2022-08-22T02:49:13.840Z,18.35
2022-08-22T02:51:48.789Z,18.65
2022-08-22T02:54:21.853Z,18.33
2022-08-22T02:56:53.998Z,18.83
2022-08-22T02:59:34.770Z,19.16
2022-08-22T03:02:28.282Z,19.14
2022-08-22T03:04:58.719Z,19.40
2022-08-22T03:07:33.833Z,19.31
2022-08-22T03:10:15.675Z,18.58
2022-08-22T03:12:53.607Z,19.14
2022-08-22T03:15:28.972Z,19.03
2022-08-22T03:18:05.387Z,19.10
2022-08-22T03:20:43.180Z,19.07
2022-08-22T03:23:17.634Z,19.21
2022-08-22T03:25:53.053Z,19.12
2022-08-22T03:28:23.930Z,18.94
2022-08-22T03:31:00.511Z,18.79
2022-08-22T03:33:30.457Z,18.87
2022-08-22T03:36:04.427Z,18.78
2022-08-22T03:38:45.655Z,18.40
2022-08-22T03:41:43.559Z,18.21
2022-08-22T03:44:40.236Z,17.75
2022-08-22T03:47:37.122Z,17.98
2022-08-22T03:50:25.314Z,18.29
2022-08-22T03:53:39.678Z,18.29
2022-08-22T03:56:33.140Z,18.48
2022-08-22T03:59:23.564Z,18.54
2022-08-22T04:02:42.061Z,18.32
2022-08-22T04:05:25.230Z,18.24
2022-08-22T04:08:11.276Z,17.83
2022-08-22T04:11:21.538Z,17.84
2022-08-22T04:14:13.101Z,18.07
2022-08-22T04:17:15.463Z,17.94
2022-08-22T04:20:16.671Z,18.37
2022-08-22T04:22:58.896Z,18.45
2022-08-22T04:25:32.596Z,18.58
2022-08-22T04:28:04.868Z,18.62
2022-08-22T04:30:36.637Z,18.59
2022-08-22T04:33:10.003Z,18.52
2022-08-22T04:35:44.380Z,18.52
2022-08-22T04:38:16.809Z,18.07
2022-08-22T04:40:50.222Z,17.89
2022-08-22T04:43:24.075Z,17.79
2022-08-22T04:45:58.854Z,17.72
2022-08-22T04:48:33.568Z,18.21
2022-08-22T04:51:04.951Z,18.59
2022-08-22T04:53:57.344Z,18.55
2022-08-22T04:56:35.721Z,18.69
2022-08-22T04:59:09.640Z,18.31
2022-08-22T05:01:44.209Z,19.29
2022-08-22T05:04:16.690Z,19.80
2022-08-22T05:06:47.585Z,20.17
2022-08-22T05:09:20.933Z,20.10
2022-08-22T05:11:51.431Z,19.76
2022-08-22T05:14:20.896Z,20.35
2022-08-22T05:16:53.978Z,20.56
2022-08-22T05:19:31.780Z,20.98
2022-08-22T05:22:00.906Z,21.14
2022-08-22T05:24:33.880Z,21.60
2022-08-22T05:27:13.199Z,22.13
2022-08-22T05:29:44.447Z,21.60
2022-08-22T05:32:19.184Z,22.03
2022-08-22T05:34:48.769Z,21.16
2022-08-22T05:37:22.517Z,21.22
2022-08-22T05:39:54.128Z,21.05
2022-08-22T05:42:26.495Z,20.64
2022-08-22T05:44:55.488Z,20.86
2022-08-22T05:47:28.981Z,21.20
2022-08-22T05:50:00.995Z,20.53
2022-08-22T05:52:40.978Z,20.49
2022-08-22T05:55:25.070Z,21.03
2022-08-22T05:58:06.837Z,21.63
2022-08-22T06:00:39.381Z,21.80
2022-08-22T06:03:16.096Z,22.04
2022-08-22T06:05:48.726Z,22.41
2022-08-22T06:08:21.590Z,22.59
2022-08-22T06:10:54.059Z,22.35
2022-08-22T06:13:28.101Z,21.90
2022-08-22T06:16:09.272Z,21.38
2022-08-22T06:18:41.341Z,21.85
2022-08-22T06:21:13.138Z,22.19
2022-08-22T06:23:44.821Z,22.75
2022-08-22T06:26:20.528Z,22.91
2022-08-22T06:28:55.630Z,23.05
2022-08-22T06:31:27.258Z,23.22
2022-08-22T06:34:00.460Z,23.57
2022-08-22T06:36:32.514Z,23.11
2022-08-22T06:39:09.083Z,23.21
2022-08-22T06:41:40.941Z,23.19
2022-08-22T06:44:11.267Z,23.45
2022-08-22T06:46:40.484Z,23.16
2022-08-22T06:49:10.622Z,23.63
2022-08-22T06:51:40.209Z,23.41
2022-08-22T06:54:14.867Z,23.57
2022-08-22T06:56:45.873Z,23.32
2022-08-22T06:59:16.381Z,23.47
2022-08-22T07:01:50.219Z,23.87
2022-08-22T07:04:25.862Z,24.34
2022-08-22T07:06:55.979Z,24.55
2022-08-22T07:09:27.591Z,24.07
2022-08-22T07:11:57.988Z,24.16
2022-08-22T07:14:27.079Z,24.85
2022-08-22T07:16:58.169Z,24.91
2022-08-22T07:19:29.999Z,25.28
2022-08-22T07:21:59.447Z,25.27
2022-08-22T07:24:31.062Z,25.47
2022-08-22T07:27:15.980Z,25.36
2022-08-22T07:29:49.572Z,25.95
2022-08-22T07:32:20.926Z,26.06
2022-08-22T07:35:03.072Z,25.62
2022-08-22T07:37:46.201Z,25.18
2022-08-22T07:40:20.975Z,25.96
2022-08-22T07:42:52.655Z,26.25
2022-08-22T07:45:34.931Z,26.20
2022-08-22T07:48:25.108Z,25.70
2022-08-22T07:51:08.883Z,26.04
2022-08-22T07:53:43.907Z,26.25
2022-08-22T07:56:16.565Z,25.77
2022-08-22T07:58:46.458Z,25.97
2022-08-22T08:01:19.629Z,26.07
2022-08-22T08:03:52.545Z,26.56
2022-08-22T08:06:24.147Z,26.16
2022-08-22T08:08:53.255Z,26.13
2022-08-22T08:11:23.812Z,26.11
2022-08-22T08:13:55.871Z,26.36
2022-08-22T08:16:26.644Z,26.14
2022-08-22T08:18:58.136Z,26.42
2022-08-22T08:21:28.753Z,26.57
2022-08-22T08:23:56.814Z,26.24
2022-08-22T08:26:28.892Z,25.43
2022-08-22T08:28:58.227Z,25.51
2022-08-22T08:31:31.952Z,25.68
2022-08-22T08:34:05.175Z,26.10
2022-08-22T08:36:41.646Z,26.80
2022-08-22T08:39:18.245Z,26.49
2022-08-22T08:42:20.308Z,26.67
2022-08-22T08:45:11.739Z,26.25
2022-08-22T08:48:17.224Z,26.69
2022-08-22T08:50:59.446Z,26.98
2022-08-22T08:53:50.966Z,27.21
2022-08-22T08:56:26.887Z,27.10
2022-08-22T08:59:01.293Z,26.92
2022-08-22T09:01:46.537Z,27.24
2022-08-22T09:04:46.827Z,26.82
2022-08-22T09:07:44.189Z,27.14
2022-08-22T09:10:27.315Z,27.56
2022-08-22T09:13:18.255Z,26.87
2022-08-22T09:16:05.206Z,26.69
2022-08-22T09:18:50.358Z,27.24
2022-08-22T09:21:31.235Z,26.62
2022-08-22T09:24:36.467Z,26.38
2022-08-22T09:27:08.726Z,26.91
2022-08-22T09:29:51.518Z,27.38
2022-08-22T09:32:33.759Z,27.78
2022-08-22T09:35:08.623Z,26.84
2022-08-22T09:37:46.466Z,27.03
2022-08-22T09:43:03.856Z,27.46
2022-08-22T09:45:47.911Z,27.55
2022-08-22T09:48:34.649Z,28.04
2022-08-22T09:51:33.210Z,28.68
2022-08-22T09:54:14.780Z,28.34
2022-08-22T09:56:53.519Z,28.04
2022-08-22T09:59:26.811Z,28.19
2022-08-22T10:02:00.874Z,28.54
2022-08-22T10:04:42.115Z,28.45
2022-08-22T10:07:25.420Z,27.49
2022-08-22T10:10:01.813Z,27.83
2022-08-22T10:12:36.233Z,28.22
2022-08-22T10:15:17.100Z,27.27
2022-08-22T10:17:58.942Z,27.59
2022-08-22T10:20:32.802Z,27.76
2022-08-22T10:23:14.775Z,27.62
2022-08-22T10:25:45.352Z,27.94
2022-08-22T10:28:19.465Z,28.41
2022-08-22T10:31:10.842Z,28.66
2022-08-22T10:33:44.387Z,28.73
2022-08-22T10:36:16.926Z,28.10
2022-08-22T10:38:48.743Z,28.29
2022-08-22T10:41:28.601Z,28.62
2022-08-22T10:44:04.114Z,28.40
2022-08-22T10:46:37.955Z,28.31
2022-08-22T10:49:10.374Z,28.76
2022-08-22T10:51:45.594Z,28.41
2022-08-22T10:54:28.513Z,27.84
2022-08-22T10:57:07.890Z,28.31
2022-08-22T10:59:40.307Z,28.10
2022-08-22T11:02:30.504Z,28.12
2022-08-22T11:05:15.456Z,28.82
2022-08-22T11:07:48.873Z,28.72
2022-08-22T11:10:25.090Z,28.83
2022-08-22T11:13:12.077Z,28.44
2022-08-22T11:16:09.433Z,28.40
2022-08-22T11:19:01.911Z,28.28
2022-08-22T11:21:46.987Z,28.48
2022-08-22T11:24:55.785Z,28.53
2022-08-22T11:27:39.967Z,28.49
2022-08-22T11:30:18.052Z,29.04
2022-08-22T11:33:11.311Z,28.25
2022-08-22T11:35:47.177Z,27.98
2022-08-22T11:38:21.773Z,28.19
2022-08-22T11:40:58.183Z,27.80
2022-08-22T11:43:39.117Z,27.60
2022-08-22T11:46:24.492Z,27.12
2022-08-22T11:49:06.385Z,27.23
2022-08-22T11:52:13.989Z,27.96
2022-08-22T11:54:59.157Z,28.66
2022-08-22T11:57:32.626Z,28.95
2022-08-22T12:00:11.488Z,28.50
2022-08-22T12:02:49.114Z,29.14
2022-08-22T12:05:26.296Z,29.27
2022-08-22T12:08:06.686Z,28.97
2022-08-22T12:10:37.641Z,29.72
2022-08-22T12:13:09.460Z,28.24
2022-08-22T12:15:44.864Z,29.28
2022-08-22T12:18:30.180Z,29.39
2022-08-22T12:21:39.833Z,28.61
2022-08-22T12:24:34.501Z,28.26
2022-08-22T12:27:34.901Z,28.55
2022-08-22T12:30:12.955Z,28.71
2022-08-22T12:33:05.790Z,29.05
2022-08-22T12:35:41.340Z,28.91
2022-08-22T12:38:28.906Z,28.51
2022-08-22T12:41:28.093Z,28.39
2022-08-22T12:44:17.347Z,28.50
2022-08-22T12:46:56.026Z,28.24
2022-08-22T12:49:38.558Z,28.16
2022-08-22T12:52:17.041Z,28.31
2022-08-22T12:54:53.332Z,27.78
2022-08-22T12:57:29.259Z,27.13
2022-08-22T13:00:08.477Z,27.11
2022-08-22T13:02:41.703Z,26.92
2022-08-22T13:05:13.760Z,27.46
2022-08-22T13:07:52.686Z,27.37
2022-08-22T13:10:40.801Z,27.06
2022-08-22T13:13:14.688Z,26.97
2022-08-22T13:15:53.915Z,27.29
2022-08-22T13:18:29.889Z,27.54
2022-08-22T13:21:02.753Z,27.68
2022-08-22T13:23:34.391Z,27.81
2022-08-22T13:26:12.053Z,27.67
2022-08-22T13:29:04.195Z,27.85
2022-08-22T13:31:39.701Z,27.28
2022-08-22T13:34:13.432Z,27.78
2022-08-22T13:36:43.570Z,27.95
2022-08-22T13:39:26.314Z,27.57
2022-08-22T13:41:56.368Z,27.64
2022-08-22T13:44:28.731Z,27.71
2022-08-22T13:47:14.222Z,28.09
2022-08-22T13:49:45.867Z,28.67
2022-08-22T13:52:29.206Z,28.39
2022-08-22T13:55:02.507Z,28.45
2022-08-22T13:57:34.745Z,28.54
2022-08-22T14:00:11.968Z,28.44
2022-08-22T14:03:01.805Z,29.05
2022-08-22T14:05:37.647Z,28.82
2022-08-22T14:08:15.805Z,28.84
2022-08-22T14:10:54.925Z,28.99
2022-08-22T14:13:39.636Z,28.96
2022-08-22T14:16:15.021Z,29.11
2022-08-22T14:18:49.559Z,28.39
2022-08-22T14:21:33.514Z,28.61
2022-08-22T14:24:17.340Z,28.52
2022-08-22T14:26:57.906Z,28.39
2022-08-22T14:29:28.221Z,28.52
2022-08-22T14:32:05.507Z,28.48
2022-08-22T14:34:41.131Z,28.44
2022-08-22T14:37:17.104Z,28.83
2022-08-22T14:39:47.909Z,29.06
2022-08-22T14:42:22.843Z,28.50
2022-08-22T14:45:01.969Z,28.51
2022-08-22T14:47:55.591Z,28.86
2022-08-22T14:50:42.273Z,28.39
2022-08-22T14:53:13.284Z,27.90
2022-08-22T14:55:43.123Z,27.80
2022-08-22T14:58:17.126Z,27.96
2022-08-22T15:00:47.956Z,27.69
2022-08-22T15:03:26.676Z,27.46
2022-08-22T15:05:57.255Z,27.38
2022-08-22T15:08:31.490Z,27.18
2022-08-22T15:11:08.959Z,27.66
2022-08-22T15:13:37.946Z,28.10
2022-08-22T15:16:16.102Z,28.35
2022-08-22T15:18:51.796Z,28.12
2022-08-22T15:21:28.862Z,28.50
2022-08-22T15:24:00.556Z,28.46
2022-08-22T15:26:32.973Z,28.21
2022-08-22T15:29:08.586Z,28.49
2022-08-22T15:31:41.460Z,28.00
2022-08-22T15:34:18.188Z,28.11
2022-08-22T15:37:28.506Z,27.99
2022-08-22T15:40:03.012Z,27.62
2022-08-22T15:42:39.121Z,28.06
2022-08-22T15:45:18.703Z,27.71
2022-08-22T15:47:52.126Z,27.96
2022-08-22T15:50:34.284Z,27.99
2022-08-22T15:53:12.244Z,28.08
2022-08-22T15:56:20.793Z,27.63
2022-08-22T15:58:50.554Z,27.80
2022-08-22T16:01:22.144Z,27.19
2022-08-22T16:03:55.879Z,27.39
2022-08-22T16:06:44.066Z,27.01
2022-08-22T16:09:31.197Z,27.47
2022-08-22T16:12:00.120Z,27.56
2022-08-22T16:14:47.390Z,27.18
2022-08-22T16:17:45.201Z,27.06
2022-08-22T16:20:51.273Z,26.97
2022-08-22T16:23:21.049Z,26.78
2022-08-22T16:26:08.910Z,27.00
2022-08-22T16:29:03.835Z,26.89
2022-08-22T16:31:34.811Z,26.66
2022-08-22T16:34:22.445Z,26.88
2022-08-22T16:36:52.776Z,26.57
2022-08-22T16:39:36.176Z,26.74
2022-08-22T16:42:28.706Z,26.70
2022-08-22T16:45:09.900Z,26.66
2022-08-22T16:47:42.893Z,26.33
2022-08-22T16:50:32.252Z,26.31
2022-08-22T16:53:04.757Z,26.26
2022-08-22T16:55:52.102Z,26.77
2022-08-22T16:58:57.732Z,26.65
2022-08-22T17:01:39.166Z,26.56
2022-08-22T17:04:16.685Z,26.67
2022-08-22T17:07:07.257Z,26.14
2022-08-22T17:10:12.528Z,26.17
2022-08-22T17:12:54.177Z,26.28
2022-08-22T17:15:30.267Z,26.52
2022-08-22T17:18:16.030Z,26.47
2022-08-22T17:20:48.800Z,26.58
2022-08-22T17:23:25.705Z,27.26
2022-08-22T17:26:02.495Z,27.24
2022-08-22T17:28:41.555Z,27.50
2022-08-22T17:31:16.051Z,27.35
2022-08-22T17:34:03.390Z,27.17
2022-08-22T17:36:42.927Z,27.38
2022-08-22T17:39:24.470Z,27.25
2022-08-22T17:41:56.494Z,27.93
2022-08-22T17:44:44.068Z,27.95
2022-08-22T17:47:16.351Z,27.93
2022-08-22T17:49:53.001Z,27.63
2022-08-22T17:52:25.761Z,28.24
2022-08-22T17:54:58.584Z,28.20
2022-08-22T17:57:30.618Z,27.67
2022-08-22T18:00:03.646Z,27.31
2022-08-22T18:02:35.342Z,27.15
2022-08-22T18:05:08.006Z,26.08
2022-08-22T18:07:54.383Z,25.89
2022-08-22T18:10:39.645Z,25.44
2022-08-22T18:13:12.095Z,25.21
2022-08-22T18:15:47.710Z,25.07
2022-08-22T18:18:30.127Z,24.97
2022-08-22T18:21:03.411Z,24.30
2022-08-22T18:23:39.891Z,24.21
2022-08-22T18:26:20.211Z,23.41
2022-08-22T18:28:52.075Z,23.14
2022-08-22T18:31:38.184Z,23.15
2022-08-22T18:34:15.088Z,23.24
2022-08-22T18:36:51.716Z,22.93
2022-08-22T18:39:27.452Z,22.67
2022-08-22T18:42:01.891Z,22.66
2022-08-22T18:44:34.730Z,22.63
2022-08-22T18:47:13.907Z,22.92
2022-08-22T18:49:48.400Z,22.61
2022-08-22T18:52:38.506Z,22.47
2022-08-22T18:55:29.031Z,22.44
2022-08-22T18:58:01.056Z,22.51
2022-08-22T19:00:42.939Z,22.54
2022-08-22T19:03:25.244Z,22.46
2022-08-22T19:06:19.112Z,22.08
2022-08-22T19:09:37.983Z,22.42
2022-08-22T19:12:17.184Z,22.33
2022-08-22T19:15:13.726Z,22.23
2022-08-22T19:17:59.328Z,21.96
2022-08-22T19:20:49.395Z,22.09
2022-08-22T19:23:43.624Z,22.17
2022-08-22T19:26:42.899Z,22.13
2022-08-22T19:29:59.832Z,22.07
2022-08-22T19:33:01.568Z,22.00
2022-08-22T19:35:40.153Z,21.93
2022-08-22T19:38:10.217Z,21.80
2022-08-22T19:40:55.856Z,21.60
2022-08-22T19:43:35.755Z,20.79
2022-08-22T19:46:07.201Z,20.91
2022-08-22T19:48:45.520Z,20.54
2022-08-22T19:51:26.180Z,20.62
2022-08-22T19:54:16.371Z,20.48
2022-08-22T19:56:58.599Z,20.73
2022-08-22T19:59:37.445Z,20.41
2022-08-22T20:02:20.857Z,20.50
2022-08-22T20:05:05.057Z,20.60
2022-08-22T20:07:43.806Z,20.61
2022-08-22T20:10:21.217Z,20.55
2022-08-22T20:13:02.157Z,20.32
2022-08-22T20:15:31.766Z,20.27
2022-08-22T20:21:00.511Z,20.23
2022-08-22T20:23:32.237Z,20.28
2022-08-22T20:26:01.113Z,20.26
2022-08-22T20:28:37.439Z,20.19
2022-08-22T20:31:10.877Z,20.19
2022-08-22T20:33:41.856Z,20.06
2022-08-22T20:36:28.005Z,20.04
2022-08-22T20:39:01.600Z,20.04
2022-08-22T20:41:33.790Z,19.91
2022-08-22T20:44:06.722Z,19.85
2022-08-22T20:46:53.836Z,19.79
2022-08-22T20:49:26.292Z,19.73
2022-08-22T20:51:56.350Z,19.54
2022-08-22T20:54:28.153Z,19.50
2022-08-22T20:56:59.874Z,19.48
2022-08-22T20:59:39.365Z,19.60
2022-08-22T21:02:11.987Z,19.54
2022-08-22T21:04:52.912Z,19.59
2022-08-22T21:07:27.203Z,19.39
2022-08-22T21:10:22.123Z,19.31
2022-08-22T21:13:06.297Z,18.87
2022-08-22T21:15:36.909Z,18.87
2022-08-22T21:18:06.905Z,18.81
2022-08-22T21:20:37.748Z,19.03
2022-08-22T21:23:08.996Z,19.06
2022-08-22T21:25:51.993Z,19.02
2022-08-22T21:28:32.218Z,19.02
2022-08-22T21:31:02.441Z,18.97
2022-08-22T21:33:30.870Z,18.92
2022-08-22T21:36:00.776Z,19.01
2022-08-22T21:38:29.358Z,19.06
2022-08-22T21:41:05.314Z,19.07
2022-08-22T21:43:36.846Z,19.03
2022-08-22T21:46:05.846Z,18.74
2022-08-22T21:48:37.815Z,18.78
2022-08-22T21:51:29.390Z,18.45
2022-08-22T21:54:39.881Z,17.84
2022-08-22T21:57:35.548Z,18.18
2022-08-22T22:00:11.029Z,18.06
2022-08-22T22:02:41.055Z,18.31
2022-08-22T22:05:11.842Z,18.29
2022-08-22T22:07:42.877Z,18.45
2022-08-22T22:10:14.004Z,18.48
2022-08-22T22:12:45.245Z,18.56
2022-08-22T22:15:16.892Z,18.38
2022-08-22T22:17:45.360Z,18.39
2022-08-22T22:20:15.746Z,18.21
2022-08-22T22:22:46.223Z,18.40
2022-08-22T22:25:38.815Z,18.54
2022-08-22T22:28:08.819Z,18.61
2022-08-22T22:30:37.368Z,18.38
2022-08-22T22:33:06.307Z,18.43
2022-08-22T22:35:35.243Z,18.53
2022-08-22T22:38:03.765Z,18.68
2022-08-22T22:40:32.356Z,18.77
2022-08-22T22:43:00.817Z,18.22
2022-08-22T22:45:30.871Z,18.26
2022-08-22T22:47:59.386Z,18.27
2022-08-22T22:50:28.035Z,18.39
2022-08-22T22:52:56.350Z,18.57
2022-08-22T22:55:25.338Z,18.23
2022-08-22T22:57:59.206Z,17.86
2022-08-22T23:00:32.242Z,18.31
2022-08-22T23:03:01.492Z,18.57
2022-08-22T23:05:30.156Z,18.53
2022-08-22T23:07:59.471Z,18.50
2022-08-22T23:10:28.943Z,18.23
2022-08-22T23:12:58.546Z,18.33
2022-08-22T23:15:27.409Z,18.22
2022-08-22T23:17:57.284Z,18.07
2022-08-22T23:20:25.800Z,18.15
2022-08-22T23:22:54.287Z,18.36
2022-08-22T23:25:22.668Z,18.39
2022-08-22T23:27:52.586Z,18.32
2022-08-22T23:30:21.600Z,18.46
2022-08-22T23:32:50.331Z,18.45
2022-08-22T23:35:20.199Z,18.40
2022-08-22T23:37:48.587Z,18.20
2022-08-22T23:40:16.998Z,18.40
2022-08-22T23:42:45.478Z,18.35
2022-08-22T23:45:13.900Z,18.32
2022-08-22T23:47:42.250Z,18.49
2022-08-22T23:50:10.918Z,18.46
2022-08-22T23:52:40.558Z,18.05
2022-08-22T23:55:09.690Z,17.78
2022-08-22T23:57:38.033Z,17.98
